createdAt,value
2016-08-31T00:00:33.853Z,0
2016-08-31T00:01:35.163Z,0
2016-08-31T00:02:34.385Z,0
2016-08-31T00:03:34.511Z,0
2016-08-31T00:04:35.247Z,0
2016-08-31T00:05:34.561Z,0
2016-08-31T00:06:33.882Z,0
2016-08-31T00:07:34.622Z,0
2016-08-31T00:08:33.926Z,0
2016-08-31T00:09:36.105Z,0
2016-08-31T00:10:34.698Z,0
2016-08-31T00:11:34.004Z,0
2016-08-31T00:12:35.456Z,0
2016-08-31T00:13:36.206Z,0
2016-08-31T00:14:34.807Z,0
2016-08-31T00:15:34.853Z,0
2016-08-31T00:16:35.566Z,0
2016-08-31T00:17:34.171Z,0
2016-08-31T00:18:35.628Z,0
2016-08-31T00:19:34.932Z,0
2016-08-31T00:20:36.383Z,0
2016-08-31T00:21:34.995Z,0
2016-08-31T00:22:34.306Z,0
2016-08-31T00:23:35.753Z,0
2016-08-31T00:24:35.065Z,0
2016-08-31T00:25:35.825Z,0
2016-08-31T00:26:34.412Z,0
2016-08-31T00:27:35.150Z,0
2016-08-31T00:28:34.481Z,0
2016-08-31T00:29:35.911Z,0
2016-08-31T00:30:35.229Z,0
2016-08-31T00:31:34.546Z,0
2016-08-31T00:32:35.281Z,0
2016-08-31T00:33:34.597Z,0
2016-08-31T00:34:36.071Z,0
2016-08-31T00:35:35.358Z,0
2016-08-31T00:36:35.421Z,0
2016-08-31T00:37:35.414Z,0
2016-08-31T00:38:36.150Z,0
2016-08-31T00:39:35.468Z,0
2016-08-31T00:40:35.490Z,0
2016-08-31T00:41:35.516Z,0
2016-08-31T00:42:34.839Z,0
2016-08-31T00:43:35.573Z,0
2016-08-31T00:44:34.888Z,0
2016-08-31T00:45:34.919Z,0
2016-08-31T00:46:35.650Z,0
2016-08-31T00:47:35.673Z,0
2016-08-31T00:48:35.701Z,0
2016-08-31T00:49:35.023Z,0
2016-08-31T00:50:36.465Z,0
2016-08-31T00:51:35.789Z,0
2016-08-31T00:52:35.817Z,0
2016-08-31T00:53:37.257Z,0
2016-08-31T00:54:36.582Z,0
2016-08-31T00:55:36.615Z,0
2016-08-31T00:56:35.933Z,0
2016-08-31T00:57:36.665Z,0
2016-08-31T00:58:35.981Z,0
2016-08-31T00:59:36.014Z,0
2016-08-31T01:00:36.727Z,0
2016-08-31T01:01:36.761Z,0
2016-08-31T01:02:36.071Z,0
2016-08-31T01:03:37.530Z,0
2016-08-31T01:04:36.840Z,0
2016-08-31T01:05:35.440Z,0
2016-08-31T01:06:36.169Z,0
2016-08-31T01:07:37.623Z,0
2016-08-31T01:08:37.650Z,0
2016-08-31T01:09:36.250Z,0
2016-08-31T01:10:37.701Z,0
2016-08-31T01:11:37.025Z,0
2016-08-31T01:12:37.065Z,0
2016-08-31T01:13:37.077Z,0
2016-08-31T01:14:37.097Z,0
2016-08-31T01:15:37.133Z,0
2016-08-31T01:16:37.150Z,0
2016-08-31T01:17:37.178Z,0
2016-08-31T01:18:37.200Z,0
2016-08-31T01:19:36.513Z,0
2016-08-31T01:20:37.256Z,0
2016-08-31T01:21:35.858Z,0
2016-08-31T01:22:36.592Z,0
2016-08-31T01:23:38.063Z,0
2016-08-31T01:24:37.357Z,0
2016-08-31T01:25:37.398Z,0
2016-08-31T01:26:37.417Z,0
2016-08-31T01:27:37.444Z,0
2016-08-31T01:28:37.464Z,0
2016-08-31T01:29:38.197Z,0
2016-08-31T01:30:36.810Z,0
2016-08-31T01:31:37.624Z,0
2016-08-31T01:32:36.874Z,0
2016-08-31T01:33:37.590Z,0
2016-08-31T01:34:36.906Z,0
2016-08-31T01:35:37.641Z,0
2016-08-31T01:36:36.967Z,0
2016-08-31T01:37:36.290Z,0
2016-08-31T01:38:37.018Z,0
2016-08-31T01:39:37.757Z,0
2016-08-31T01:40:37.091Z,0
2016-08-31T01:41:36.390Z,0
2016-08-31T01:42:37.127Z,0
2016-08-31T01:43:37.137Z,0
2016-08-31T01:44:37.883Z,0
2016-08-31T01:45:37.196Z,0
2016-08-31T01:46:37.930Z,0
2016-08-31T01:47:37.958Z,0
2016-08-31T01:48:37.975Z,0
2016-08-31T01:49:37.300Z,0
2016-08-31T01:50:36.622Z,0
2016-08-31T01:51:37.351Z,0
2016-08-31T01:52:38.087Z,0
2016-08-31T01:53:38.822Z,0
2016-08-31T01:54:38.154Z,0
2016-08-31T01:55:38.162Z,0
2016-08-31T01:56:36.764Z,0
2016-08-31T01:57:37.523Z,0
2016-08-31T01:58:38.248Z,0
2016-08-31T01:59:36.855Z,0
2016-08-31T02:00:38.295Z,0
2016-08-31T02:01:38.316Z,0
2016-08-31T02:02:37.639Z,0
2016-08-31T02:03:38.371Z,0
2016-08-31T02:04:37.686Z,0
2016-08-31T02:05:37.047Z,0
2016-08-31T02:06:38.448Z,0
2016-08-31T02:07:38.478Z,0
2016-08-31T02:08:37.792Z,0
2016-08-31T02:09:37.103Z,0
2016-08-31T02:10:37.849Z,0
2016-08-31T02:11:37.890Z,0
2016-08-31T02:12:38.602Z,0
2016-08-31T02:13:37.930Z,0
2016-08-31T02:14:39.368Z,0
2016-08-31T02:15:39.415Z,0
2016-08-31T02:16:37.285Z,0
2016-08-31T02:17:38.019Z,0
2016-08-31T02:18:38.073Z,0
2016-08-31T02:19:38.782Z,0
2016-08-31T02:20:38.805Z,0
2016-08-31T02:21:38.126Z,0
2016-08-31T02:22:38.859Z,0
2016-08-31T02:23:37.468Z,0
2016-08-31T02:24:39.629Z,0
2016-08-31T02:25:38.966Z,0
2016-08-31T02:26:38.287Z,0
2016-08-31T02:27:38.989Z,0
2016-08-31T02:28:39.028Z,0
2016-08-31T02:29:38.342Z,0
2016-08-31T02:30:37.644Z,0
2016-08-31T02:31:38.386Z,0
2016-08-31T02:32:38.406Z,0
2016-08-31T02:33:38.436Z,0
2016-08-31T02:34:38.456Z,0
2016-08-31T02:35:37.786Z,0
2016-08-31T02:36:38.510Z,0
2016-08-31T02:37:37.826Z,0
2016-08-31T02:38:38.557Z,0
2016-08-31T02:39:38.610Z,0
2016-08-31T02:40:40.056Z,0
2016-08-31T02:41:39.366Z,0
2016-08-31T02:42:38.672Z,0
2016-08-31T02:43:38.693Z,0
2016-08-31T02:44:39.423Z,0
2016-08-31T02:45:39.449Z,0
2016-08-31T02:46:38.763Z,0
2016-08-31T02:47:38.793Z,0
2016-08-31T02:48:39.526Z,0
2016-08-31T02:49:39.549Z,0
2016-08-31T02:50:40.300Z,0
2016-08-31T02:51:38.906Z,0
2016-08-31T02:52:38.934Z,0
2016-08-31T02:53:40.383Z,0
2016-08-31T02:54:39.676Z,0
2016-08-31T02:55:39.705Z,0
2016-08-31T02:56:39.730Z,0
2016-08-31T02:57:38.340Z,0
2016-08-31T02:58:39.077Z,0
2016-08-31T02:59:39.102Z,0
2016-08-31T03:00:39.838Z,0
2016-08-31T03:01:40.573Z,0
2016-08-31T03:02:39.173Z,0
2016-08-31T03:03:39.950Z,0
2016-08-31T03:04:39.943Z,0
2016-08-31T03:05:39.259Z,0
2016-08-31T03:06:39.305Z,0
2016-08-31T03:07:40.030Z,0
2016-08-31T03:08:38.616Z,0
2016-08-31T03:09:38.651Z,0
2016-08-31T03:10:39.386Z,0
2016-08-31T03:11:39.419Z,0
2016-08-31T03:12:39.439Z,0
2016-08-31T03:13:40.174Z,0
2016-08-31T03:14:40.902Z,0
2016-08-31T03:15:39.534Z,0
2016-08-31T03:16:39.532Z,0
2016-08-31T03:17:40.269Z,0
2016-08-31T03:18:38.872Z,0
2016-08-31T03:19:39.611Z,0
2016-08-31T03:20:38.929Z,0
2016-08-31T03:21:41.081Z,0
2016-08-31T03:22:39.682Z,0
2016-08-31T03:23:39.031Z,0
2016-08-31T03:24:40.447Z,0
2016-08-31T03:25:40.475Z,0
2016-08-31T03:26:39.077Z,0
2016-08-31T03:27:39.100Z,0
2016-08-31T03:28:39.847Z,0
2016-08-31T03:29:40.573Z,0
2016-08-31T03:30:39.899Z,0
2016-08-31T03:31:39.202Z,0
2016-08-31T03:32:40.644Z,0
2016-08-31T03:33:39.970Z,0
2016-08-31T03:34:40.699Z,0
2016-08-31T03:35:41.485Z,0
2016-08-31T03:36:40.056Z,0
2016-08-31T03:37:41.488Z,0
2016-08-31T03:38:39.389Z,0
2016-08-31T03:39:40.822Z,0
2016-08-31T03:40:40.144Z,0
2016-08-31T03:41:40.169Z,0
2016-08-31T03:42:41.612Z,0
2016-08-31T03:43:39.516Z,0
2016-08-31T03:44:40.949Z,0
2016-08-31T03:45:40.286Z,0
2016-08-31T03:46:41.007Z,0
2016-08-31T03:47:39.626Z,0
2016-08-31T03:48:41.054Z,0
2016-08-31T03:49:39.671Z,0
2016-08-31T03:50:39.682Z,0
2016-08-31T03:51:40.429Z,0
2016-08-31T03:52:41.866Z,0
2016-08-31T03:53:39.764Z,0
2016-08-31T03:54:41.206Z,0
2016-08-31T03:55:40.527Z,0
2016-08-31T03:56:40.542Z,0
2016-08-31T03:57:41.281Z,0
2016-08-31T03:58:39.888Z,0
2016-08-31T03:59:41.325Z,0
2016-08-31T04:00:40.650Z,0
2016-08-31T04:01:39.971Z,0
2016-08-31T04:02:41.402Z,0
2016-08-31T04:03:40.730Z,0
2016-08-31T04:04:41.457Z,0
2016-08-31T04:05:41.478Z,0
2016-08-31T04:06:41.536Z,0
2016-08-31T04:07:41.543Z,0
2016-08-31T04:08:40.842Z,0
2016-08-31T04:09:40.876Z,0
2016-08-31T04:10:40.907Z,0
2016-08-31T04:11:41.633Z,0
2016-08-31T04:12:41.667Z,0
2016-08-31T04:13:40.989Z,0
2016-08-31T04:14:41.002Z,0
2016-08-31T04:15:41.029Z,0
2016-08-31T04:16:41.046Z,0
2016-08-31T04:17:41.090Z,0
2016-08-31T04:18:41.823Z,0
2016-08-31T04:19:41.119Z,4
2016-08-31T04:20:41.148Z,0
2016-08-31T04:21:40.472Z,0
2016-08-31T04:22:41.198Z,0
2016-08-31T04:23:41.932Z,0
2016-08-31T04:24:41.958Z,0
2016-08-31T04:25:41.270Z,4
2016-08-31T04:26:41.324Z,4
2016-08-31T04:27:42.036Z,0
2016-08-31T04:28:42.056Z,0
2016-08-31T04:29:42.082Z,4
2016-08-31T04:30:42.127Z,4
2016-08-31T04:31:42.849Z,0
2016-08-31T04:32:41.454Z,0
2016-08-31T04:33:42.185Z,4
2016-08-31T04:34:42.919Z,4
2016-08-31T04:35:41.317Z,0
2016-08-31T04:36:42.275Z,4
2016-08-31T04:37:40.869Z,4
2016-08-31T04:38:40.897Z,4
2016-08-31T04:39:41.627Z,4
2016-08-31T04:40:40.943Z,4
2016-08-31T04:41:42.391Z,8
2016-08-31T04:42:40.990Z,4
2016-08-31T04:43:41.724Z,4
2016-08-31T04:44:42.463Z,8
2016-08-31T04:45:41.800Z,4
2016-08-31T04:46:41.800Z,8
2016-08-31T04:47:42.533Z,4
2016-08-31T04:48:42.573Z,8
2016-08-31T04:49:42.591Z,8
2016-08-31T04:50:41.905Z,8
2016-08-31T04:51:42.645Z,8
2016-08-31T04:52:41.243Z,8
2016-08-31T04:53:42.690Z,8
2016-08-31T04:54:42.002Z,8
2016-08-31T04:55:42.752Z,12
2016-08-31T04:56:42.780Z,12
2016-08-31T04:57:43.509Z,12
2016-08-31T04:58:42.105Z,12
2016-08-31T04:59:42.843Z,8
2016-08-31T05:00:41.446Z,12
2016-08-31T05:01:42.177Z,12
2016-08-31T05:02:41.493Z,12
2016-08-31T05:03:42.950Z,12
2016-08-31T05:04:42.970Z,12
2016-08-31T05:05:43.710Z,12
2016-08-31T05:06:43.013Z,16
2016-08-31T05:07:41.630Z,12
2016-08-31T05:08:42.356Z,16
2016-08-31T05:09:42.376Z,16
2016-08-31T05:10:43.119Z,16
2016-08-31T05:11:42.435Z,16
2016-08-31T05:12:42.465Z,16
2016-08-31T05:13:41.768Z,16
2016-08-31T05:14:43.224Z,16
2016-08-31T05:15:42.529Z,20
2016-08-31T05:16:42.568Z,16
2016-08-31T05:17:42.606Z,16
2016-08-31T05:18:42.615Z,20
2016-08-31T05:19:42.645Z,20
2016-08-31T05:20:42.669Z,20
2016-08-31T05:21:41.983Z,20
2016-08-31T05:22:42.710Z,20
2016-08-31T05:23:42.728Z,24
2016-08-31T05:24:42.760Z,20
2016-08-31T05:25:42.780Z,20
2016-08-31T05:26:42.804Z,24
2016-08-31T05:27:42.844Z,24
2016-08-31T05:28:42.171Z,24
2016-08-31T05:29:43.594Z,24
2016-08-31T05:30:42.199Z,24
2016-08-31T05:31:42.223Z,24
2016-08-31T05:32:43.663Z,28
2016-08-31T05:33:42.985Z,24
2016-08-31T05:34:42.294Z,28
2016-08-31T05:35:44.327Z,28
2016-08-31T05:36:43.769Z,28
2016-08-31T05:37:43.084Z,28
2016-08-31T05:38:43.107Z,28
2016-08-31T05:39:44.033Z,28
2016-08-31T05:40:43.176Z,32
2016-08-31T05:41:43.892Z,28
2016-08-31T05:42:43.209Z,32
2016-08-31T05:43:44.651Z,32
2016-08-31T05:44:43.263Z,32
2016-08-31T05:45:44.706Z,36
2016-08-31T05:46:42.621Z,36
2016-08-31T05:47:43.340Z,36
2016-08-31T05:48:43.365Z,40
2016-08-31T05:49:43.385Z,44
2016-08-31T05:50:43.409Z,44
2016-08-31T05:51:44.150Z,44
2016-08-31T05:52:44.178Z,48
2016-08-31T05:53:44.196Z,48
2016-08-31T05:54:44.241Z,52
2016-08-31T05:55:44.245Z,56
2016-08-31T05:56:43.564Z,56
2016-08-31T05:57:44.308Z,60
2016-08-31T05:58:43.614Z,60
2016-08-31T05:59:43.658Z,64
2016-08-31T06:00:44.380Z,64
2016-08-31T06:01:42.983Z,68
2016-08-31T06:02:44.423Z,72
2016-08-31T06:03:43.738Z,68
2016-08-31T06:04:43.768Z,72
2016-08-31T06:05:44.748Z,72
2016-08-31T06:06:43.820Z,76
2016-08-31T06:07:43.158Z,76
2016-08-31T06:08:43.163Z,84
2016-08-31T06:09:43.895Z,84
2016-08-31T06:10:43.919Z,84
2016-08-31T06:11:43.235Z,92
2016-08-31T06:12:43.970Z,88
2016-08-31T06:13:44.724Z,92
2016-08-31T06:14:44.022Z,92
2016-08-31T06:15:44.048Z,96
2016-08-31T06:16:44.827Z,100
2016-08-31T06:17:44.808Z,100
2016-08-31T06:18:44.139Z,104
2016-08-31T06:19:44.153Z,104
2016-08-31T06:20:44.890Z,108
2016-08-31T06:21:44.912Z,108
2016-08-31T06:22:44.240Z,112
2016-08-31T06:23:44.971Z,112
2016-08-31T06:24:44.283Z,116
2016-08-31T06:25:44.306Z,120
2016-08-31T06:26:45.041Z,120
2016-08-31T06:27:44.359Z,116
2016-08-31T06:28:44.393Z,120
2016-08-31T06:29:44.407Z,124
2016-08-31T06:30:45.872Z,128
2016-08-31T06:31:45.188Z,128
2016-08-31T06:32:45.192Z,132
2016-08-31T06:33:45.224Z,132
2016-08-31T06:34:45.247Z,140
2016-08-31T06:35:44.567Z,136
2016-08-31T06:36:45.308Z,152
2016-08-31T06:37:44.615Z,152
2016-08-31T06:38:43.931Z,156
2016-08-31T06:39:46.091Z,172
2016-08-31T06:40:45.408Z,168
2016-08-31T06:41:46.138Z,132
2016-08-31T06:42:44.056Z,120
2016-08-31T06:43:45.485Z,172
2016-08-31T06:44:44.799Z,108
2016-08-31T06:45:44.834Z,108
2016-08-31T06:46:44.851Z,108
2016-08-31T06:47:46.316Z,108
2016-08-31T06:48:45.625Z,92
2016-08-31T06:49:45.651Z,124
2016-08-31T06:50:44.243Z,100
2016-08-31T06:51:45.693Z,104
2016-08-31T06:52:44.292Z,128
2016-08-31T06:53:45.038Z,104
2016-08-31T06:54:45.063Z,112
2016-08-31T06:55:45.817Z,100
2016-08-31T06:56:45.128Z,108
2016-08-31T06:57:45.138Z,104
2016-08-31T06:58:45.158Z,108
2016-08-31T06:59:45.906Z,104
2016-08-31T07:00:45.217Z,108
2016-08-31T07:01:45.949Z,112
2016-08-31T07:02:46.688Z,116
2016-08-31T07:03:46.094Z,148
2016-08-31T07:04:46.037Z,132
2016-08-31T07:05:45.348Z,136
2016-08-31T07:06:46.081Z,160
2016-08-31T07:07:44.690Z,200
2016-08-31T07:08:44.722Z,144
2016-08-31T07:09:44.743Z,116
2016-08-31T07:10:46.902Z,96
2016-08-31T07:11:45.507Z,96
2016-08-31T07:12:46.252Z,116
2016-08-31T07:13:44.858Z,124
2016-08-31T07:14:45.586Z,112
2016-08-31T07:15:44.942Z,100
2016-08-31T07:16:46.359Z,116
2016-08-31T07:17:46.380Z,132
2016-08-31T07:18:44.980Z,140
2016-08-31T07:19:45.722Z,172
2016-08-31T07:20:45.774Z,236
2016-08-31T07:21:45.771Z,236
2016-08-31T07:22:45.800Z,328
2016-08-31T07:23:46.530Z,200
2016-08-31T07:24:46.562Z,296
2016-08-31T07:25:46.598Z,204
2016-08-31T07:26:47.315Z,296
2016-08-31T07:27:45.233Z,300
2016-08-31T07:28:45.954Z,316
2016-08-31T07:29:46.683Z,324
2016-08-31T07:30:46.005Z,316
2016-08-31T07:31:46.031Z,324
2016-08-31T07:32:46.056Z,332
2016-08-31T07:33:45.378Z,336
2016-08-31T07:34:46.819Z,324
2016-08-31T07:35:46.134Z,336
2016-08-31T07:36:45.456Z,336
2016-08-31T07:37:46.190Z,340
2016-08-31T07:38:46.929Z,356
2016-08-31T07:39:46.957Z,356
2016-08-31T07:40:46.270Z,352
2016-08-31T07:41:46.338Z,360
2016-08-31T07:42:45.721Z,360
2016-08-31T07:43:47.202Z,376
2016-08-31T07:44:47.084Z,388
2016-08-31T07:45:47.111Z,368
2016-08-31T07:46:47.146Z,376
2016-08-31T07:47:47.168Z,384
2016-08-31T07:48:45.776Z,408
2016-08-31T07:49:47.245Z,408
2016-08-31T07:50:45.826Z,404
2016-08-31T07:51:47.285Z,396
2016-08-31T07:52:47.301Z,404
2016-08-31T07:53:48.302Z,400
2016-08-31T07:54:47.357Z,408
2016-08-31T07:55:45.960Z,408
2016-08-31T07:56:45.998Z,412
2016-08-31T07:57:46.016Z,412
2016-08-31T07:58:46.756Z,412
2016-08-31T07:59:48.203Z,408
2016-08-31T08:00:46.096Z,408
2016-08-31T08:01:46.139Z,404
2016-08-31T08:02:47.091Z,416
2016-08-31T08:03:46.372Z,420
2016-08-31T08:04:46.365Z,428
2016-08-31T08:05:48.060Z,428
2016-08-31T08:06:46.506Z,436
2016-08-31T08:07:46.487Z,440
2016-08-31T08:08:47.194Z,440
2016-08-31T08:09:47.072Z,444
2016-08-31T08:10:47.080Z,444
2016-08-31T08:11:47.814Z,448
2016-08-31T08:12:46.428Z,444
2016-08-31T08:13:47.160Z,452
2016-08-31T08:14:47.193Z,456
2016-08-31T08:15:46.513Z,456
2016-08-31T08:16:47.960Z,464
2016-08-31T08:17:47.983Z,460
2016-08-31T08:18:48.014Z,464
2016-08-31T08:19:47.329Z,460
2016-08-31T08:20:48.797Z,460
2016-08-31T08:21:47.394Z,460
2016-08-31T08:22:47.412Z,468
2016-08-31T08:23:47.439Z,468
2016-08-31T08:24:47.503Z,460
2016-08-31T08:25:47.500Z,464
2016-08-31T08:26:47.523Z,476
2016-08-31T08:27:46.842Z,480
2016-08-31T08:28:48.293Z,476
2016-08-31T08:29:47.607Z,472
2016-08-31T08:30:49.063Z,472
2016-08-31T08:31:46.957Z,468
2016-08-31T08:32:48.407Z,464
2016-08-31T08:33:48.439Z,464
2016-08-31T08:34:47.757Z,468
2016-08-31T08:35:47.069Z,464
2016-08-31T08:36:48.537Z,460
2016-08-31T08:37:48.556Z,464
2016-08-31T08:38:47.156Z,460
2016-08-31T08:39:47.201Z,464
2016-08-31T08:40:49.342Z,468
2016-08-31T08:41:49.372Z,464
2016-08-31T08:42:47.978Z,464
2016-08-31T08:43:48.024Z,460
2016-08-31T08:44:48.749Z,460
2016-08-31T08:45:48.066Z,460
2016-08-31T08:46:48.095Z,460
2016-08-31T08:47:48.842Z,464
2016-08-31T08:48:47.440Z,472
2016-08-31T08:49:48.204Z,500
2016-08-31T08:50:48.922Z,516
2016-08-31T08:51:47.525Z,1188
2016-08-31T08:52:48.973Z,1196
2016-08-31T08:53:48.297Z,520
2016-08-31T08:54:49.031Z,484
2016-08-31T08:55:48.363Z,472
2016-08-31T08:56:49.804Z,468
2016-08-31T08:57:48.419Z,460
2016-08-31T08:58:47.731Z,460
2016-08-31T08:59:49.192Z,464
2016-08-31T09:00:49.210Z,528
2016-08-31T09:01:47.822Z,628
2016-08-31T09:02:49.282Z,656
2016-08-31T09:03:49.300Z,468
2016-08-31T09:04:49.320Z,460
2016-08-31T09:05:48.648Z,480
2016-08-31T09:06:48.675Z,464
2016-08-31T09:07:49.414Z,460
2016-08-31T09:08:48.765Z,456
2016-08-31T09:09:49.470Z,452
2016-08-31T09:10:48.792Z,456
2016-08-31T09:11:49.652Z,456
2016-08-31T09:12:49.562Z,456
2016-08-31T09:13:48.880Z,456
2016-08-31T09:14:48.228Z,448
2016-08-31T09:15:48.934Z,444
2016-08-31T09:16:50.412Z,444
2016-08-31T09:17:49.709Z,448
2016-08-31T09:18:49.776Z,452
2016-08-31T09:19:49.780Z,448
2016-08-31T09:20:48.475Z,452
2016-08-31T09:21:49.829Z,452
2016-08-31T09:22:49.141Z,452
2016-08-31T09:23:50.602Z,444
2016-08-31T09:24:49.204Z,448
2016-08-31T09:25:49.953Z,448
2016-08-31T09:26:49.276Z,452
2016-08-31T09:27:49.292Z,448
2016-08-31T09:28:49.324Z,452
2016-08-31T09:29:50.086Z,452
2016-08-31T09:30:50.809Z,452
2016-08-31T09:31:50.125Z,456
2016-08-31T09:32:48.729Z,456
2016-08-31T09:33:49.593Z,452
2016-08-31T09:34:49.498Z,452
2016-08-31T09:35:51.500Z,456
2016-08-31T09:36:49.586Z,460
2016-08-31T09:37:49.600Z,456
2016-08-31T09:38:50.331Z,452
2016-08-31T09:39:50.392Z,448
2016-08-31T09:40:50.394Z,448
2016-08-31T09:41:50.424Z,464
2016-08-31T09:42:50.449Z,456
2016-08-31T09:43:50.515Z,472
2016-08-31T09:44:50.516Z,540
2016-08-31T09:45:49.123Z,708
2016-08-31T09:46:49.861Z,820
2016-08-31T09:47:49.897Z,632
2016-08-31T09:48:49.216Z,1044
2016-08-31T09:49:49.954Z,1404
2016-08-31T09:50:49.273Z,564
2016-08-31T09:51:50.743Z,480
2016-08-31T09:52:50.785Z,472
2016-08-31T09:53:50.095Z,488
2016-08-31T09:54:50.102Z,580
2016-08-31T09:55:50.847Z,1004
2016-08-31T09:56:50.169Z,928
2016-08-31T09:57:50.198Z,776
2016-08-31T09:58:50.230Z,768
2016-08-31T09:59:50.267Z,544
2016-08-31T10:00:51.710Z,460
2016-08-31T10:01:49.608Z,440
2016-08-31T10:02:51.784Z,440
2016-08-31T10:03:49.691Z,472
2016-08-31T10:04:50.415Z,452
2016-08-31T10:05:50.442Z,496
2016-08-31T10:06:49.758Z,572
2016-08-31T10:07:49.795Z,516
2016-08-31T10:08:50.604Z,448
2016-08-31T10:09:49.884Z,624
2016-08-31T10:10:51.315Z,900
2016-08-31T10:11:50.622Z,600
2016-08-31T10:12:50.655Z,480
2016-08-31T10:13:51.396Z,424
2016-08-31T10:14:50.716Z,416
2016-08-31T10:15:51.467Z,416
2016-08-31T10:16:50.070Z,416
2016-08-31T10:17:50.099Z,424
2016-08-31T10:18:51.553Z,432
2016-08-31T10:19:50.872Z,464
2016-08-31T10:20:50.211Z,476
2016-08-31T10:21:51.676Z,440
2016-08-31T10:22:50.256Z,412
2016-08-31T10:23:51.710Z,408
2016-08-31T10:24:51.032Z,408
2016-08-31T10:25:51.058Z,408
2016-08-31T10:26:51.804Z,412
2016-08-31T10:27:51.845Z,408
2016-08-31T10:28:51.863Z,408
2016-08-31T10:29:51.904Z,444
2016-08-31T10:30:51.931Z,536
2016-08-31T10:31:51.958Z,560
2016-08-31T10:32:52.729Z,468
2016-08-31T10:33:50.599Z,456
2016-08-31T10:34:51.340Z,520
2016-08-31T10:35:52.088Z,536
2016-08-31T10:36:52.115Z,544
2016-08-31T10:37:52.139Z,420
2016-08-31T10:38:51.471Z,400
2016-08-31T10:39:52.932Z,404
2016-08-31T10:40:52.242Z,400
2016-08-31T10:41:51.554Z,404
2016-08-31T10:42:50.900Z,404
2016-08-31T10:43:51.635Z,416
2016-08-31T10:44:51.651Z,512
2016-08-31T10:45:51.682Z,552
2016-08-31T10:46:52.441Z,708
2016-08-31T10:47:51.763Z,572
2016-08-31T10:48:51.778Z,480
2016-08-31T10:49:52.649Z,480
2016-08-31T10:50:51.138Z,412
2016-08-31T10:51:51.163Z,388
2016-08-31T10:52:52.614Z,388
2016-08-31T10:53:51.934Z,392
2016-08-31T10:54:53.394Z,392
2016-08-31T10:55:52.709Z,396
2016-08-31T10:56:52.034Z,392
2016-08-31T10:57:52.773Z,388
2016-08-31T10:58:52.814Z,384
2016-08-31T10:59:51.416Z,388
2016-08-31T11:00:53.581Z,384
2016-08-31T11:01:52.220Z,380
2016-08-31T11:02:53.641Z,384
2016-08-31T11:03:52.282Z,380
2016-08-31T11:04:52.281Z,376
2016-08-31T11:05:53.041Z,372
2016-08-31T11:06:51.643Z,376
2016-08-31T11:07:51.685Z,376
2016-08-31T11:08:53.131Z,372
2016-08-31T11:09:52.444Z,380
2016-08-31T11:10:53.183Z,376
2016-08-31T11:11:51.798Z,380
2016-08-31T11:12:53.972Z,380
2016-08-31T11:13:52.567Z,376
2016-08-31T11:14:52.626Z,392
2016-08-31T11:15:52.634Z,388
2016-08-31T11:16:52.677Z,384
2016-08-31T11:17:53.409Z,380
2016-08-31T11:18:53.437Z,400
2016-08-31T11:19:53.474Z,408
2016-08-31T11:20:52.088Z,380
2016-08-31T11:21:52.827Z,368
2016-08-31T11:22:52.860Z,368
2016-08-31T11:23:52.902Z,368
2016-08-31T11:24:53.650Z,368
2016-08-31T11:25:52.971Z,368
2016-08-31T11:26:52.278Z,368
2016-08-31T11:27:53.733Z,364
2016-08-31T11:28:52.334Z,364
2016-08-31T11:29:53.796Z,364
2016-08-31T11:30:53.157Z,364
2016-08-31T11:31:53.164Z,364
2016-08-31T11:32:53.907Z,364
2016-08-31T11:33:53.469Z,360
2016-08-31T11:34:52.741Z,364
2016-08-31T11:35:53.999Z,368
2016-08-31T11:36:53.337Z,364
2016-08-31T11:37:54.817Z,364
2016-08-31T11:38:53.380Z,360
2016-08-31T11:39:52.710Z,356
2016-08-31T11:40:54.158Z,360
2016-08-31T11:41:54.173Z,356
2016-08-31T11:42:54.977Z,356
2016-08-31T11:43:54.421Z,352
2016-08-31T11:44:54.281Z,352
2016-08-31T11:45:53.596Z,352
2016-08-31T11:46:55.060Z,352
2016-08-31T11:47:54.380Z,348
2016-08-31T11:48:53.709Z,344
2016-08-31T11:49:54.509Z,344
2016-08-31T11:50:53.761Z,332
2016-08-31T11:51:55.467Z,340
2016-08-31T11:52:53.873Z,340
2016-08-31T11:53:53.857Z,340
2016-08-31T11:54:54.599Z,340
2016-08-31T11:55:55.558Z,340
2016-08-31T11:56:54.667Z,340
2016-08-31T11:57:55.484Z,336
2016-08-31T11:58:54.751Z,328
2016-08-31T11:59:55.484Z,328
2016-08-31T12:00:55.514Z,332
2016-08-31T12:01:54.123Z,328
2016-08-31T12:02:54.142Z,320
2016-08-31T12:03:54.890Z,324
2016-08-31T12:04:54.221Z,328
2016-08-31T12:05:54.959Z,324
2016-08-31T12:06:55.034Z,328
2016-08-31T12:07:55.906Z,324
2016-08-31T12:08:55.123Z,324
2016-08-31T12:09:55.834Z,324
2016-08-31T12:10:53.706Z,320
2016-08-31T12:11:55.144Z,324
2016-08-31T12:12:53.756Z,324
2016-08-31T12:13:54.510Z,324
2016-08-31T12:14:55.245Z,324
2016-08-31T12:15:55.392Z,324
2016-08-31T12:16:54.616Z,324
2016-08-31T12:17:55.704Z,320
2016-08-31T12:18:55.393Z,316
2016-08-31T12:19:56.140Z,316
2016-08-31T12:20:55.444Z,312
2016-08-31T12:21:54.924Z,312
2016-08-31T12:22:56.290Z,308
2016-08-31T12:23:54.146Z,308
2016-08-31T12:24:54.852Z,308
2016-08-31T12:25:55.601Z,308
2016-08-31T12:26:55.695Z,308
2016-08-31T12:27:54.243Z,304
2016-08-31T12:28:56.416Z,300
2016-08-31T12:29:55.753Z,300
2016-08-31T12:30:55.057Z,300
2016-08-31T12:31:56.534Z,296
2016-08-31T12:32:55.117Z,292
2016-08-31T12:33:54.442Z,292
2016-08-31T12:34:56.787Z,292
2016-08-31T12:35:54.658Z,292
2016-08-31T12:36:55.445Z,288
2016-08-31T12:37:54.598Z,288
2016-08-31T12:38:56.404Z,288
2016-08-31T12:39:54.637Z,284
2016-08-31T12:40:56.171Z,288
2016-08-31T12:41:55.406Z,292
2016-08-31T12:42:55.556Z,288
2016-08-31T12:43:55.485Z,288
2016-08-31T12:44:56.216Z,292
2016-08-31T12:45:55.531Z,292
2016-08-31T12:46:56.276Z,292
2016-08-31T12:47:54.912Z,288
2016-08-31T12:48:56.354Z,288
2016-08-31T12:49:56.377Z,288
2016-08-31T12:50:56.414Z,284
2016-08-31T12:51:57.159Z,284
2016-08-31T12:52:55.762Z,280
2016-08-31T12:53:56.505Z,276
2016-08-31T12:55:42.591Z,272
2016-08-31T12:56:01.975Z,276
2016-08-31T12:56:57.464Z,272
2016-08-31T12:57:55.927Z,272
2016-08-31T12:58:55.967Z,280
2016-08-31T12:59:55.991Z,280
2016-08-31T13:00:56.023Z,280
2016-08-31T13:01:55.350Z,276
2016-08-31T13:02:57.525Z,276
2016-08-31T13:03:56.124Z,276
2016-08-31T13:04:56.867Z,264
2016-08-31T13:05:56.916Z,272
2016-08-31T13:06:56.217Z,272
2016-08-31T13:07:56.959Z,272
2016-08-31T13:08:57.763Z,272
2016-08-31T13:09:56.323Z,272
2016-08-31T13:10:55.655Z,268
2016-08-31T13:11:57.095Z,272
2016-08-31T13:12:58.184Z,268
2016-08-31T13:13:59.045Z,268
2016-08-31T13:14:59.445Z,264
2016-08-31T13:15:57.227Z,260
2016-08-31T13:16:56.544Z,260
2016-08-31T13:17:57.291Z,260
2016-08-31T13:18:57.325Z,256
2016-08-31T13:19:56.650Z,256
2016-08-31T13:20:56.701Z,260
2016-08-31T13:21:57.430Z,256
2016-08-31T13:22:56.753Z,252
2016-08-31T13:23:57.488Z,248
2016-08-31T13:24:58.229Z,248
2016-08-31T13:25:56.841Z,244
2016-08-31T13:26:56.870Z,244
2016-08-31T13:27:56.908Z,240
2016-08-31T13:28:56.231Z,240
2016-08-31T13:29:57.678Z,240
2016-08-31T13:30:57.025Z,236
2016-08-31T13:31:57.747Z,232
2016-08-31T13:32:57.068Z,232
2016-08-31T13:33:57.814Z,228
2016-08-31T13:34:57.851Z,228
2016-08-31T13:35:56.457Z,232
2016-08-31T13:36:57.203Z,228
2016-08-31T13:37:57.246Z,228
2016-08-31T13:38:57.375Z,228
2016-08-31T13:39:58.721Z,216
2016-08-31T13:40:58.044Z,212
2016-08-31T13:41:58.143Z,204
2016-08-31T13:42:57.405Z,200
2016-08-31T13:43:57.474Z,200
2016-08-31T13:44:58.177Z,196
2016-08-31T13:45:58.208Z,196
2016-08-31T13:46:58.952Z,196
2016-08-31T13:47:57.563Z,196
2016-08-31T13:48:58.334Z,156
2016-08-31T13:49:58.340Z,172
2016-08-31T13:50:56.957Z,72
2016-08-31T13:51:58.403Z,68
2016-08-31T13:52:57.025Z,76
2016-08-31T13:53:58.482Z,116
2016-08-31T13:54:58.515Z,164
2016-08-31T13:55:58.543Z,192
2016-08-31T13:56:59.281Z,188
2016-08-31T13:57:58.607Z,192
2016-08-31T13:58:57.213Z,184
2016-08-31T13:59:59.377Z,184
2016-08-31T14:00:58.013Z,184
2016-08-31T14:01:58.023Z,180
2016-08-31T14:02:58.279Z,180
2016-08-31T14:03:58.113Z,176
2016-08-31T14:04:58.122Z,176
2016-08-31T14:05:59.012Z,180
2016-08-31T14:06:58.207Z,176
2016-08-31T14:07:58.930Z,176
2016-08-31T14:08:58.254Z,172
2016-08-31T14:09:57.575Z,168